Time;durP1;ratioP1;P1;durP2;ratioP2;P2;SDS_P1;SDS_P2;PMS_P1;PMS_P2;Temp;Humidity;BMP_temperature;BMP_pressure;BME280_temperature;BME280_humidity;BME280_pressure;Samples;Min_cycle;Max_cycle;Signal;HPM_P1;HPM_P2
2023/04/19 00:00:15;;;;;;;;;;;;;;;;;;5133942;27;2072;-40
2023/04/19 00:02:42;;;;;;;;;;;;;;;;;;5133748;27;1800;-39
2023/04/19 00:05:10;;;;;;;;;;;;;;;;;;5133711;27;1976;-40
2023/04/19 00:07:38;;;;;;;;;;;;;;;;;;5133838;27;2251;-40
2023/04/19 00:10:05;;;;;;;;;;;;;;;;;;5133858;27;2153;-47
2023/04/19 00:12:34;;;;;;;;;;;;;;;;;;5133710;27;2391;-47
2023/04/19 00:15:01;;;;;;;;;;;;;;;;;;5133763;27;2065;-39
2023/04/19 00:17:28;;;;;;;;;;;;;;;;;;5133595;27;1635;-40
2023/04/19 00:19:56;;;;;;;;;;;;;;;;;;5133799;27;1830;-48
2023/04/19 00:22:23;;;;;;;;;;;;;;;;;;5133455;27;1971;-40
2023/04/19 00:24:50;;;;;;;;;;;;;;;;;;5133288;27;1915;-39
2023/04/19 00:27:18;;;;;;;;;;;;;;;;;;5133285;27;1911;-40
2023/04/19 00:29:45;;;;;;;;;;;;;;;;;;5133379;27;1903;-38
2023/04/19 00:32:12;;;;;;;;;;;;;;;;;;5114806;27;1863;-38
2023/04/19 00:34:39;;;;;;;;;;;;;;;;;;5133370;27;2292;-44
2023/04/19 00:37:07;;;;;;;;;;;;;;;;;;5133189;27;1789;-40
2023/04/19 00:39:34;;;;;;;;;;;;;;;;;;5132994;27;1698;-43
2023/04/19 00:42:04;;;;;;;;;;;;;;;;;;5114519;27;2143;-40
2023/04/19 00:44:31;;;;;;;;;;;;;;;;;;5132469;27;2335;-40
2023/04/19 00:46:59;;;;;;;;;;;;;;;;;;5127605;27;2048;-40
2023/04/19 00:49:28;;;;;;;;;;;;;;;;;;5128526;27;1990;-39
2023/04/19 00:51:55;;;;;;;;;;;;;;;;;;5126116;27;1492;-39
2023/04/19 00:54:22;;;;;;;;;;;;;;;;;;5114325;27;2014;-39
2023/04/19 00:56:51;;;;;;;;;;;;;;;;;;5114344;27;1746;-43
2023/04/19 00:59:18;;;;;;;;;;;;;;;;;;5132684;27;2109;-40
2023/04/19 01:01:45;;;;;;;;;;;;;;;;;;5132943;27;1773;-38
2023/04/19 01:04:12;;;;;;;;;;;;;;;;;;5132329;27;2012;-40
2023/04/19 01:06:40;;;;;;;;;;;;;;;;;;5132410;27;1994;-40
2023/04/19 01:09:09;;;;;;;;;;;;;;;;;;5132735;27;1855;-40
2023/04/19 01:11:40;;;;;;;;;;;;;;;;;;5132747;27;1962;-40
2023/04/19 01:14:09;;;;;;;;;;;;;;;;;;5114202;27;1777;-40
2023/04/19 01:16:37;;;;;;;;;;;;;;;;;;5113941;27;1645;-39
2023/04/19 01:19:05;;;;;;;;;;;;;;;;;;5114227;27;1728;-44
2023/04/19 01:21:32;;;;;;;;;;;;;;;;;;5113838;27;2163;-40
2023/04/19 01:24:00;;;;;;;;;;;;;;;;;;5114083;27;2192;-39
2023/04/19 01:26:27;;;;;;;;;;;;;;;;;;5132542;27;1915;-40
2023/04/19 01:28:54;;;;;;;;;;;;;;;;;;5113837;27;2040;-40
2023/04/19 01:31:21;;;;;;;;;;;;;;;;;;5132208;27;1979;-40
2023/04/19 01:33:49;;;;;;;;;;;;;;;;;;5132039;27;1270;-40
2023/04/19 01:36:16;;;;;;;;;;;;;;;;;;5132223;27;1778;-51
2023/04/19 01:38:46;;;;;;;;;;;;;;;;;;5132328;27;1819;-41
2023/04/19 01:41:13;;;;;;;;;;;;;;;;;;5132168;27;1607;-40
2023/04/19 01:43:40;;;;;;;;;;;;;;;;;;5113676;28;1688;-40
2023/04/19 01:46:08;;;;;;;;;;;;;;;;;;5131467;28;1907;-40
2023/04/19 01:48:36;;;;;;;;;;;;;;;;;;5094322;28;1842;-39
2023/04/19 01:51:04;;;;;;;;;;;;;;;;;;5111595;28;1808;-41
2023/04/19 01:53:33;;;;;;;;;;;;;;;;;;5110035;28;1614;-40
2023/04/19 01:56:00;;;;;;;;;;;;;;;;;;5111827;28;1994;-40
2023/04/19 01:58:28;;;;;;;;;;;;;;;;;;5093886;28;1382;-42
2023/04/19 02:00:55;;;;;;;;;;;;;;;;;;5092853;28;1884;-39
2023/04/19 02:03:22;;;;;;;;;;;;;;;;;;5112635;28;2251;-41
2023/04/19 02:05:52;;;;;;;;;;;;;;;;;;5115196;28;2074;-41
2023/04/19 02:08:21;;;;;;;;;;;;;;;;;;5115337;28;1841;-41
2023/04/19 02:10:48;;;;;;;;;;;;;;;;;;5115552;28;2100;-41
2023/04/19 02:13:16;;;;;;;;;;;;;;;;;;5097145;28;2102;-41
2023/04/19 02:15:44;;;;;;;;;;;;;;;;;;5097024;28;1495;-46
2023/04/19 02:18:12;;;;;;;;;;;;;;;;;;5096940;28;1960;-42
2023/04/19 02:20:39;;;;;;;;;;;;;;;;;;5115349;28;1703;-40
2023/04/19 02:23:06;;;;;;;;;;;;;;;;;;5114131;28;1820;-44
2023/04/19 02:25:33;;;;;;;;;;;;;;;;;;5117009;27;2022;-45
2023/04/19 02:28:01;;;;;;;;;;;;;;;;;;5117428;27;1664;-44
2023/04/19 02:30:28;;;;;;;;;;;;;;;;;;5117059;27;1845;-41
2023/04/19 02:32:57;;;;;;;;;;;;;;;;;;5117050;27;1943;-41
2023/04/19 02:35:24;;;;;;;;;;;;;;;;;;5135390;27;1485;-52
2023/04/19 02:37:51;;;;;;;;;;;;;;;;;;5116935;27;1775;-46
2023/04/19 02:40:21;;;;;;;;;;;;;;;;;;5114949;28;2090;-47
2023/04/19 02:42:49;;;;;;;;;;;;;;;;;;5114900;28;2238;-42
2023/04/19 02:45:17;;;;;;;;;;;;;;;;;;5096211;28;1983;-38
2023/04/19 02:47:45;;;;;;;;;;;;;;;;;;5100909;28;1895;-42
2023/04/19 02:50:14;;;;;;;;;;;;;;;;;;5093295;28;1852;-46
2023/04/19 02:52:46;;;;;;;;;;;;;;;;;;5092976;28;2194;-49
2023/04/19 02:55:14;;;;;;;;;;;;;;;;;;5092633;28;1840;-55
2023/04/19 02:57:42;;;;;;;;;;;;;;;;;;5092910;28;1768;-52
2023/04/19 03:00:10;;;;;;;;;;;;;;;;;;5092761;28;1979;-46
2023/04/19 03:02:42;;;;;;;;;;;;;;;;;;5092712;28;1712;-53
2023/04/19 03:05:12;;;;;;;;;;;;;;;;;;5093928;28;1908;-48
2023/04/19 03:07:39;;;;;;;;;;;;;;;;;;5093735;28;1744;-48
2023/04/19 03:10:08;;;;;;;;;;;;;;;;;;5092877;28;1789;-44
2023/04/19 03:12:35;;;;;;;;;;;;;;;;;;5094263;28;1806;-42
2023/04/19 03:15:03;;;;;;;;;;;;;;;;;;5093602;28;1883;-41
2023/04/19 03:17:30;;;;;;;;;;;;;;;;;;5092494;28;2019;-42
2023/04/19 03:19:58;;;;;;;;;;;;;;;;;;5093712;28;1792;-41
2023/04/19 03:22:25;;;;;;;;;;;;;;;;;;5092277;28;2092;-40
2023/04/19 03:24:53;;;;;;;;;;;;;;;;;;5093657;28;1912;-42
2023/04/19 03:27:22;;;;;;;;;;;;;;;;;;5110877;28;2282;-41
2023/04/19 03:29:56;;;;;;;;;;;;;;;;;;5112609;28;1701;-42
2023/04/19 03:32:24;;;;;;;;;;;;;;;;;;5112657;28;1988;-42
2023/04/19 03:34:51;;;;;;;;;;;;;;;;;;5113850;28;1706;-42
2023/04/19 03:37:19;;;;;;;;;;;;;;;;;;5112414;28;1737;-58
2023/04/19 03:39:46;;;;;;;;;;;;;;;;;;5112444;28;2179;-42
2023/04/19 03:42:19;;;;;;;;;;;;;;;;;;5107302;28;1901;-50
2023/04/19 03:45:15;;;;;;;;;;;;;;;;;;5080127;28;2019;-48
2023/04/19 03:47:46;;;;;;;;;;;;;;;;;;5103348;28;2316;-42
2023/04/19 03:50:14;;;;;;;;;;;;;;;;;;5112096;28;2046;-41
2023/04/19 03:52:45;;;;;;;;;;;;;;;;;;5112264;28;2023;-45
2023/04/19 03:55:13;;;;;;;;;;;;;;;;;;5112435;28;2054;-50
2023/04/19 03:57:40;;;;;;;;;;;;;;;;;;5113284;28;1507;-41
2023/04/19 04:00:17;;;;;;;;;;;;;;;;;;5112080;28;2140;-46
2023/04/19 04:02:52;;;;;;;;;;;;;;;;;;5112011;28;2143;-45
2023/04/19 04:05:21;;;;;;;;;;;;;;;;;;5111718;28;2320;-40
2023/04/19 04:07:48;;;;;;;;;;;;;;;;;;5113034;28;1985;-41
2023/04/19 04:10:15;;;;;;;;;;;;;;;;;;5113015;28;1968;-54
2023/04/19 04:12:42;;;;;;;;;;;;;;;;;;5113120;28;1753;-43
2023/04/19 04:15:14;;;;;;;;;;;;;;;;;;5111993;28;2424;-41
2023/04/19 04:17:46;;;;;;;;;;;;;;;;;;5111720;28;1930;-47
2023/04/19 04:20:15;;;;;;;;;;;;;;;;;;5112823;28;2098;-45
2023/04/19 04:22:42;;;;;;;;;;;;;;;;;;5111692;28;1972;-48
2023/04/19 04:25:12;;;;;;;;;;;;;;;;;;5111352;28;2096;-44
2023/04/19 04:27:40;;;;;;;;;;;;;;;;;;5110428;28;2374;-46
2023/04/19 04:30:11;;;;;;;;;;;;;;;;;;5111708;28;1626;-50
2023/04/19 04:32:39;;;;;;;;;;;;;;;;;;5111737;28;1948;-58
2023/04/19 04:35:08;;;;;;;;;;;;;;;;;;5111131;28;1964;-42
2023/04/19 04:37:43;;;;;;;;;;;;;;;;;;5112425;28;1667;-42
2023/04/19 04:40:10;;;;;;;;;;;;;;;;;;5111459;28;1708;-53
2023/04/19 04:42:39;;;;;;;;;;;;;;;;;;5112749;28;2047;-41
2023/04/19 04:45:07;;;;;;;;;;;;;;;;;;5112547;28;1906;-41
2023/04/19 04:47:40;;;;;;;;;;;;;;;;;;5191782;27;1573;-42
2023/04/19 04:50:09;;;;;;;;;;;;;;;;;;5173110;27;1335;-45
2023/04/19 04:52:38;;;;;;;;;;;;;;;;;;5172948;27;1365;-41
2023/04/19 04:55:15;;;;;;;;;;;;;;;;;;5191966;27;1298;-42
2023/04/19 04:57:43;;;;;;;;;;;;;;;;;;5173258;27;2140;-44
2023/04/19 05:00:20;;;;;;;;;;;;;;;;;;5172767;27;1249;-42
2023/04/19 05:03:01;;;;;;;;;;;;;;;;;;5172934;27;1248;-57
2023/04/19 05:05:32;;;;;;;;;;;;;;;;;;5172761;27;1886;-42
2023/04/19 05:08:00;;;;;;;;;;;;;;;;;;5172429;27;1682;-55
2023/04/19 05:10:27;;;;;;;;;;;;;;;;;;5191299;27;1038;-54
2023/04/19 05:12:54;;;;;;;;;;;;;;;;;;5172562;27;1264;-53
2023/04/19 05:15:21;;;;;;;;;;;;;;;;;;5172811;27;1386;-47
2023/04/19 05:17:52;;;;;;;;;;;;;;;;;;5172859;27;1212;-56
2023/04/19 05:20:21;;;;;;;;;;;;;;;;;;5191345;27;931;-54
2023/04/19 05:22:58;;;;;;;;;;;;;;;;;;5172483;27;1411;-42
2023/04/19 05:25:28;;;;;;;;;;;;;;;;;;5172293;27;1911;-42
2023/04/19 05:27:56;;;;;;;;;;;;;;;;;;5172246;27;1472;-41
2023/04/19 05:30:29;;;;;;;;;;;;;;;;;;5172383;27;1529;-50
2023/04/19 05:32:56;;;;;;;;;;;;;;;;;;5172347;27;1208;-42
2023/04/19 05:35:23;;;;;;;;;;;;;;;;;;5171907;27;1337;-46
2023/04/19 05:37:51;;;;;;;;;;;;;;;;;;5172009;27;1344;-42
2023/04/19 05:40:18;;;;;;;;;;;;;;;;;;5172110;27;1309;-53
2023/04/19 05:42:45;;;;;;;;;;;;;;;;;;5170783;27;1167;-53
2023/04/19 05:45:14;;;;;;;;;;;;;;;;;;5169866;27;1413;-58
2023/04/19 05:47:41;;;;;;;;;;;;;;;;;;5176284;27;1975;-62
2023/04/19 05:50:27;;;;;;;;;;;;;;;;;;5168247;27;978;-54
2023/04/19 05:53:23;;;;;;;;;;;;;;;;;;5110586;27;1174;-56
2023/04/19 05:55:52;;;;;;;;;;;;;;;;;;5148876;27;1456;-60
2023/04/19 05:58:19;;;;;;;;;;;;;;;;;;5140799;27;1326;-51
2023/04/19 06:00:47;;;;;;;;;;;;;;;;;;5155910;27;1135;-50
2023/04/19 06:03:18;;;;;;;;;;;;;;;;;;5137184;27;1428;-44
2023/04/19 06:05:45;;;;;;;;;;;;;;;;;;5155683;27;1915;-46
2023/04/19 06:08:15;;;;;;;;;;;;;;;;;;5155617;27;1112;-43
2023/04/19 06:10:46;;;;;;;;;;;;;;;;;;5155636;27;1069;-43
2023/04/19 06:13:21;;;;;;;;;;;;;;;;;;5155556;27;1117;-42
2023/04/19 06:15:51;;;;;;;;;;;;;;;;;;5155322;27;1147;-43
2023/04/19 06:18:18;;;;;;;;;;;;;;;;;;5155389;27;1032;-45
2023/04/19 06:20:46;;;;;;;;;;;;;;;;;;5155573;27;1274;-43
2023/04/19 06:23:13;;;;;;;;;;;;;;;;;;5155287;27;898;-42
2023/04/19 06:25:41;;;;;;;;;;;;;;;;;;5155151;27;1976;-42
2023/04/19 06:28:08;;;;;;;;;;;;;;;;;;5155248;27;1199;-44
2023/04/19 06:30:35;;;;;;;;;;;;;;;;;;5155178;27;1026;-42
2023/04/19 06:33:02;;;;;;;;;;;;;;;;;;5155299;27;970;-43
2023/04/19 06:35:30;;;;;;;;;;;;;;;;;;5155120;27;1018;-43
2023/04/19 06:38:00;;;;;;;;;;;;;;;;;;5154998;27;1386;-48
2023/04/19 06:40:28;;;;;;;;;;;;;;;;;;5154788;27;1066;-44
2023/04/19 06:42:55;;;;;;;;;;;;;;;;;;5155293;27;982;-43
2023/04/19 06:45:22;;;;;;;;;;;;;;;;;;5154696;27;1267;-42
2023/04/19 06:47:50;;;;;;;;;;;;;;;;;;5158814;27;1968;-42
2023/04/19 06:50:17;;;;;;;;;;;;;;;;;;5155122;27;1325;-45
2023/04/19 06:52:44;;;;;;;;;;;;;;;;;;5154691;27;1314;-42
2023/04/19 06:55:11;;;;;;;;;;;;;;;;;;5154954;27;929;-42
2023/04/19 06:57:38;;;;;;;;;;;;;;;;;;5154635;27;1076;-41
2023/04/19 07:00:06;;;;;;;;;;;;;;;;;;5154449;27;1243;-42
2023/04/19 07:02:34;;;;;;;;;;;;;;;;;;5154564;27;1117;-41
2023/04/19 07:05:02;;;;;;;;;;;;;;;;;;5154158;27;1257;-42
2023/04/19 07:07:29;;;;;;;;;;;;;;;;;;5154365;27;1909;-48
2023/04/19 07:09:56;;;;;;;;;;;;;;;;;;5153172;27;1447;-41
2023/04/19 07:12:24;;;;;;;;;;;;;;;;;;5154528;27;1257;-42
2023/04/19 07:14:55;;;;;;;;;;;;;;;;;;5154749;27;1345;-52
2023/04/19 07:17:24;;;;;;;;;;;;;;;;;;5154409;27;1045;-42
2023/04/19 07:19:52;;;;;;;;;;;;;;;;;;5154183;27;1173;-43
2023/04/19 07:22:21;;;;;;;;;;;;;;;;;;5154320;27;1261;-42
2023/04/19 07:24:50;;;;;;;;;;;;;;;;;;5154454;27;1248;-41
2023/04/19 07:27:18;;;;;;;;;;;;;;;;;;5153808;27;1984;-42
2023/04/19 07:29:45;;;;;;;;;;;;;;;;;;5154081;27;1260;-39
2023/04/19 07:32:15;;;;;;;;;;;;;;;;;;5153776;27;1061;-41
2023/04/19 07:34:44;;;;;;;;;;;;;;;;;;5135705;27;1007;-40
2023/04/19 07:37:11;;;;;;;;;;;;;;;;;;5153885;27;1181;-41
2023/04/19 07:39:38;;;;;;;;;;;;;;;;;;5137953;27;1354;-40
2023/04/19 07:42:05;;;;;;;;;;;;;;;;;;5133124;27;1253;-40
2023/04/19 07:44:32;;;;;;;;;;;;;;;;;;5133312;27;1203;-42
2023/04/19 07:47:00;;;;;;;;;;;;;;;;;;5143412;27;1909;-40
2023/04/19 07:49:28;;;;;;;;;;;;;;;;;;5174483;27;903;-39
2023/04/19 07:51:55;;;;;;;;;;;;;;;;;;5174526;27;1259;-41
2023/04/19 07:54:22;;;;;;;;;;;;;;;;;;5174501;27;1075;-43
2023/04/19 07:56:50;;;;;;;;;;;;;;;;;;5155941;27;1155;-49
2023/04/19 07:59:17;;;;;;;;;;;;;;;;;;5155329;27;1148;-41
2023/04/19 08:01:44;;;;;;;;;;;;;;;;;;5174346;27;1368;-46
2023/04/19 08:04:11;;;;;;;;;;;;;;;;;;5174363;27;1158;-48
2023/04/19 08:06:41;;;;;;;;;;;;;;;;;;5174216;27;1975;-49
2023/04/19 08:09:09;;;;;;;;;;;;;;;;;;5174160;27;1059;-46
2023/04/19 08:11:36;;;;;;;;;;;;;;;;;;5174217;27;1008;-54
2023/04/19 08:14:03;;;;;;;;;;;;;;;;;;5173979;27;1136;-42
2023/04/19 08:16:50;;;;;;;;;;;;;;;;;;5173837;27;1130;-56
2023/04/19 08:19:20;;;;;;;;;;;;;;;;;;5173847;27;1104;-47
2023/04/19 08:21:47;;;;;;;;;;;;;;;;;;5173687;27;1048;-39
2023/04/19 08:24:14;;;;;;;;;;;;;;;;;;5173940;27;991;-41
2023/04/19 08:26:42;;;;;;;;;;;;;;;;;;5174012;27;1913;-40
2023/04/19 08:29:09;;;;;;;;;;;;;;;;;;5173934;27;1376;-40
2023/04/19 08:31:36;;;;;;;;;;;;;;;;;;5173935;27;1172;-40
2023/04/19 08:34:03;;;;;;;;;;;;;;;;;;5173877;27;1071;-40
2023/04/19 08:36:30;;;;;;;;;;;;;;;;;;5173807;27;1010;-40
2023/04/19 08:39:05;;;;;;;;;;;;;;;;;;5173416;27;978;-41
2023/04/19 08:41:40;;;;;;;;;;;;;;;;;;5173586;27;961;-41
2023/04/19 08:44:10;;;;;;;;;;;;;;;;;;5173766;27;954;-41
2023/04/19 08:46:37;;;;;;;;;;;;;;;;;;5171044;27;1905;-41
2023/04/19 08:49:05;;;;;;;;;;;;;;;;;;5152862;27;1295;-47
2023/04/19 08:51:32;;;;;;;;;;;;;;;;;;5152634;27;1110;-38
2023/04/19 08:54:00;;;;;;;;;;;;;;;;;;5152788;27;1071;-40
2023/04/19 08:56:27;;;;;;;;;;;;;;;;;;5152804;27;1356;-41
2023/04/19 08:59:01;;;;;;;;;;;;;;;;;;5152690;27;1364;-39
2023/04/19 09:01:45;;;;;;;;;;;;;;;;;;5152659;27;1120;-40
2023/04/19 09:04:12;;;;;;;;;;;;;;;;;;5152472;27;1149;-40
2023/04/19 09:06:59;;;;;;;;;;;;;;;;;;5152707;27;1917;-37
2023/04/19 09:09:28;;;;;;;;;;;;;;;;;;5134575;27;1110;-39
2023/04/19 09:12:15;;;;;;;;;;;;;;;;;;5152814;27;1217;-39
2023/04/19 09:14:46;;;;;;;;;;;;;;;;;;5152448;27;926;-40
2023/04/19 09:17:16;;;;;;;;;;;;;;;;;;5152952;27;1363;-39
2023/04/19 09:19:47;;;;;;;;;;;;;;;;;;5152663;27;1368;-39
2023/04/19 09:22:15;;;;;;;;;;;;;;;;;;5152591;27;1030;-40
2023/04/19 09:24:42;;;;;;;;;;;;;;;;;;5152328;27;910;-40
2023/04/19 09:27:13;;;;;;;;;;;;;;;;;;5152099;27;1984;-40
2023/04/19 09:29:41;;;;;;;;;;;;;;;;;;5152432;27;1155;-37
2023/04/19 09:32:08;;;;;;;;;;;;;;;;;;5152328;27;1160;-41
2023/04/19 09:34:49;;;;;;;;;;;;;;;;;;5156291;27;1078;-40
2023/04/19 09:37:16;;;;;;;;;;;;;;;;;;5156181;27;1194;-40
2023/04/19 09:40:23;;;;;;;;;;;;;;;;;;5156435;27;936;-39
2023/04/19 09:42:51;;;;;;;;;;;;;;;;;;5137618;27;2283;-39
2023/04/19 09:45:21;;;;;;;;;;;;;;;;;;5155997;27;1282;-40
2023/04/19 09:48:02;;;;;;;;;;;;;;;;;;5155965;27;1930;-39
2023/04/19 09:50:29;;;;;;;;;;;;;;;;;;5156134;27;1080;-40
2023/04/19 09:52:58;;;;;;;;;;;;;;;;;;5156109;27;1326;-40
2023/04/19 09:55:26;;;;;;;;;;;;;;;;;;5155917;27;1059;-40
2023/04/19 09:57:57;;;;;;;;;;;;;;;;;;5155963;27;1096;-39
2023/04/19 10:00:24;;;;;;;;;;;;;;;;;;5155772;27;1076;-49
2023/04/19 10:02:56;;;;;;;;;;;;;;;;;;5155737;27;1042;-50
2023/04/19 10:05:24;;;;;;;;;;;;;;;;;;5137666;27;1374;-41
2023/04/19 10:07:53;;;;;;;;;;;;;;;;;;5136959;27;1972;-41
2023/04/19 10:10:25;;;;;;;;;;;;;;;;;;5155709;27;1203;-41
2023/04/19 10:13:08;;;;;;;;;;;;;;;;;;5155570;27;1388;-57
2023/04/19 10:15:45;;;;;;;;;;;;;;;;;;5155384;27;1216;-40
2023/04/19 10:18:19;;;;;;;;;;;;;;;;;;5155539;27;1008;-39
2023/04/19 10:20:50;;;;;;;;;;;;;;;;;;5155524;27;1348;-40
2023/04/19 10:23:18;;;;;;;;;;;;;;;;;;5155365;27;1127;-42
2023/04/19 10:25:46;;;;;;;;;;;;;;;;;;5155557;27;1086;-45
2023/04/19 10:28:16;;;;;;;;;;;;;;;;;;5155210;27;1909;-44
2023/04/19 10:30:54;;;;;;;;;;;;;;;;;;5155362;27;1077;-46
2023/04/19 10:33:29;;;;;;;;;;;;;;;;;;5155210;27;987;-41
2023/04/19 10:35:58;;;;;;;;;;;;;;;;;;5154954;27;1157;-42
2023/04/19 10:38:36;;;;;;;;;;;;;;;;;;5155152;27;1120;-40
2023/04/19 10:41:04;;;;;;;;;;;;;;;;;;5155144;27;1101;-38
2023/04/19 10:43:34;;;;;;;;;;;;;;;;;;5154999;27;1160;-40
2023/04/19 10:46:20;;;;;;;;;;;;;;;;;;5154757;27;1400;-39
2023/04/19 10:48:54;;;;;;;;;;;;;;;;;;5134112;27;2043;-40
2023/04/19 10:51:23;;;;;;;;;;;;;;;;;;5134104;27;1080;-40
2023/04/19 10:53:51;;;;;;;;;;;;;;;;;;5134193;27;903;-41
2023/04/19 10:56:40;;;;;;;;;;;;;;;;;;5133966;27;1655;-42
2023/04/19 10:59:09;;;;;;;;;;;;;;;;;;5133614;27;1329;-39
2023/04/19 11:01:48;;;;;;;;;;;;;;;;;;5134070;27;905;-40
2023/04/19 11:04:16;;;;;;;;;;;;;;;;;;5133948;27;1067;-40
2023/04/19 11:06:53;;;;;;;;;;;;;;;;;;5133647;27;984;-42
2023/04/19 11:09:24;;;;;;;;;;;;;;;;;;5133884;27;1228;-39
2023/04/19 11:11:57;;;;;;;;;;;;;;;;;;5133771;27;1159;-40
2023/04/19 11:14:24;;;;;;;;;;;;;;;;;;5133735;27;1248;-39
2023/04/19 11:16:51;;;;;;;;;;;;;;;;;;5133631;27;963;-40
2023/04/19 11:19:18;;;;;;;;;;;;;;;;;;5133608;27;910;-39
2023/04/19 11:21:46;;;;;;;;;;;;;;;;;;5133249;27;1260;-41
2023/04/19 11:24:17;;;;;;;;;;;;;;;;;;5133456;27;1150;-41
2023/04/19 11:26:45;;;;;;;;;;;;;;;;;;5133508;27;1130;-44
2023/04/19 11:29:12;;;;;;;;;;;;;;;;;;5133389;27;1967;-53
2023/04/19 11:31:42;;;;;;;;;;;;;;;;;;5133484;27;885;-47
2023/04/19 11:34:09;;;;;;;;;;;;;;;;;;5133197;27;939;-40
2023/04/19 11:36:46;;;;;;;;;;;;;;;;;;5133567;27;1434;-47
2023/04/19 11:39:13;;;;;;;;;;;;;;;;;;5133184;27;1123;-39
2023/04/19 11:41:40;;;;;;;;;;;;;;;;;;5133270;27;1383;-39
2023/04/19 11:44:20;;;;;;;;;;;;;;;;;;5133172;27;1240;-40
2023/04/19 11:47:06;;;;;;;;;;;;;;;;;;5140010;27;1376;-40
2023/04/19 11:49:34;;;;;;;;;;;;;;;;;;5174673;27;1002;-40
2023/04/19 11:52:04;;;;;;;;;;;;;;;;;;5174704;27;913;-39
2023/04/19 11:54:32;;;;;;;;;;;;;;;;;;5174528;27;1114;-41
2023/04/19 11:57:06;;;;;;;;;;;;;;;;;;5173873;27;1051;-40
2023/04/19 11:59:34;;;;;;;;;;;;;;;;;;5174433;27;1033;-40
2023/04/19 12:02:09;;;;;;;;;;;;;;;;;;5174336;27;1073;-52
2023/04/19 12:04:37;;;;;;;;;;;;;;;;;;5156091;27;1076;-40
2023/04/19 12:07:05;;;;;;;;;;;;;;;;;;5174194;27;903;-40
2023/04/19 12:09:33;;;;;;;;;;;;;;;;;;5173745;27;1964;-41
2023/04/19 12:12:01;;;;;;;;;;;;;;;;;;5174147;27;1054;-40
2023/04/19 12:14:30;;;;;;;;;;;;;;;;;;5174238;27;915;-40
2023/04/19 12:17:10;;;;;;;;;;;;;;;;;;5174281;27;1188;-39
2023/04/19 12:19:42;;;;;;;;;;;;;;;;;;5174006;27;1078;-40
2023/04/19 12:22:13;;;;;;;;;;;;;;;;;;5174209;27;983;-39
2023/04/19 12:24:40;;;;;;;;;;;;;;;;;;5174118;27;1165;-41
2023/04/19 12:27:08;;;;;;;;;;;;;;;;;;5174371;27;1211;-57
2023/04/19 12:29:37;;;;;;;;;;;;;;;;;;5173816;27;1968;-52
2023/04/19 12:32:04;;;;;;;;;;;;;;;;;;5173968;27;1457;-46
2023/04/19 12:34:31;;;;;;;;;;;;;;;;;;5173935;27;916;-40
2023/04/19 12:36:59;;;;;;;;;;;;;;;;;;5173896;27;1375;-41
2023/04/19 12:39:27;;;;;;;;;;;;;;;;;;5173875;27;1070;-51
2023/04/19 12:41:54;;;;;;;;;;;;;;;;;;5173810;27;1053;-40
2023/04/19 12:44:22;;;;;;;;;;;;;;;;;;5173387;27;1602;-39
2023/04/19 12:46:49;;;;;;;;;;;;;;;;;;5169395;27;1351;-40
2023/04/19 12:49:18;;;;;;;;;;;;;;;;;;5152503;27;1911;-40
2023/04/19 12:51:46;;;;;;;;;;;;;;;;;;5153026;27;1004;-40
2023/04/19 12:54:14;;;;;;;;;;;;;;;;;;5153087;27;1171;-41
2023/04/19 12:56:41;;;;;;;;;;;;;;;;;;5153152;27;1082;-40
2023/04/19 12:59:08;;;;;;;;;;;;;;;;;;5152909;27;1092;-39
2023/04/19 13:01:35;;;;;;;;;;;;;;;;;;5152545;27;1108;-40
2023/04/19 13:04:03;;;;;;;;;;;;;;;;;;5152728;27;998;-40
2023/04/19 13:06:30;;;;;;;;;;;;;;;;;;5152383;27;1021;-41
2023/04/19 13:08:57;;;;;;;;;;;;;;;;;;5155656;27;1921;-41
2023/04/19 13:11:27;;;;;;;;;;;;;;;;;;5156855;27;1261;-41
2023/04/19 13:13:54;;;;;;;;;;;;;;;;;;5156553;27;1028;-40
2023/04/19 13:16:21;;;;;;;;;;;;;;;;;;5156744;27;1390;-40
2023/04/19 13:18:51;;;;;;;;;;;;;;;;;;5156757;27;1017;-41
2023/04/19 13:21:22;;;;;;;;;;;;;;;;;;5156673;27;1099;-40
2023/04/19 13:23:49;;;;;;;;;;;;;;;;;;5156268;27;1453;-41
2023/04/19 13:26:16;;;;;;;;;;;;;;;;;;5156567;27;1090;-40
2023/04/19 13:28:44;;;;;;;;;;;;;;;;;;5156632;27;1967;-46
2023/04/19 13:31:11;;;;;;;;;;;;;;;;;;5156666;27;1033;-40
2023/04/19 13:33:38;;;;;;;;;;;;;;;;;;5156500;27;1010;-41
2023/04/19 13:36:06;;;;;;;;;;;;;;;;;;5156591;27;1392;-38
2023/04/19 13:38:33;;;;;;;;;;;;;;;;;;5156419;27;1369;-48
2023/04/19 13:41:01;;;;;;;;;;;;;;;;;;5156119;27;927;-40
2023/04/19 13:43:28;;;;;;;;;;;;;;;;;;5156164;27;1087;-51
2023/04/19 13:45:55;;;;;;;;;;;;;;;;;;5155953;27;1228;-43
2023/04/19 13:48:25;;;;;;;;;;;;;;;;;;5173328;27;1914;-41
2023/04/19 13:50:56;;;;;;;;;;;;;;;;;;5176672;27;1029;-47
2023/04/19 13:53:25;;;;;;;;;;;;;;;;;;5177066;27;980;-39
2023/04/19 13:55:52;;;;;;;;;;;;;;;;;;5176913;27;1120;-40
2023/04/19 13:58:19;;;;;;;;;;;;;;;;;;5177055;27;1155;-40
2023/04/19 14:00:49;;;;;;;;;;;;;;;;;;5177237;27;979;-40
2023/04/19 14:03:17;;;;;;;;;;;;;;;;;;5177080;27;1007;-43
2023/04/19 14:05:44;;;;;;;;;;;;;;;;;;5176717;27;1208;-40
2023/04/19 14:08:11;;;;;;;;;;;;;;;;;;5176766;27;1909;-40
2023/04/19 14:10:39;;;;;;;;;;;;;;;;;;5176452;27;917;-40
2023/04/19 14:13:06;;;;;;;;;;;;;;;;;;5176695;27;1042;-57
2023/04/19 14:15:33;;;;;;;;;;;;;;;;;;5176378;27;1305;-51
2023/04/19 14:18:01;;;;;;;;;;;;;;;;;;5176222;27;1204;-57
2023/04/19 14:20:28;;;;;;;;;;;;;;;;;;5176231;27;1221;-55
2023/04/19 14:22:57;;;;;;;;;;;;;;;;;;5176256;27;1192;-49
2023/04/19 14:25:25;;;;;;;;;;;;;;;;;;5176351;27;1272;-59
2023/04/19 14:27:52;;;;;;;;;;;;;;;;;;5176218;27;1905;-49
2023/04/19 14:30:19;;;;;;;;;;;;;;;;;;5176223;27;1383;-58
2023/04/19 14:32:47;;;;;;;;;;;;;;;;;;5176173;27;902;-41
2023/04/19 14:35:14;;;;;;;;;;;;;;;;;;5170346;27;991;-40
2023/04/19 14:37:42;;;;;;;;;;;;;;;;;;5155165;27;1063;-43
2023/04/19 14:40:09;;;;;;;;;;;;;;;;;;5155134;27;1081;-45
2023/04/19 14:42:37;;;;;;;;;;;;;;;;;;5154823;27;951;-42
2023/04/19 14:45:04;;;;;;;;;;;;;;;;;;5155059;27;1037;-41
2023/04/19 14:47:32;;;;;;;;;;;;;;;;;;5154535;27;1337;-41
2023/04/19 14:50:00;;;;;;;;;;;;;;;;;;5154939;27;1907;-50
2023/04/19 14:52:29;;;;;;;;;;;;;;;;;;5154946;27;980;-40
2023/04/19 14:54:56;;;;;;;;;;;;;;;;;;5154923;27;1189;-43
2023/04/19 14:57:24;;;;;;;;;;;;;;;;;;5154833;27;881;-41
2023/04/19 14:59:57;;;;;;;;;;;;;;;;;;5154564;27;1033;-40
2023/04/19 15:02:24;;;;;;;;;;;;;;;;;;5154713;27;913;-40
2023/04/19 15:04:52;;;;;;;;;;;;;;;;;;5154448;27;1142;-39
2023/04/19 15:07:20;;;;;;;;;;;;;;;;;;5154482;27;1104;-40
2023/04/19 15:09:47;;;;;;;;;;;;;;;;;;5154220;27;1913;-45
2023/04/19 15:12:15;;;;;;;;;;;;;;;;;;5154571;27;1112;-45
2023/04/19 15:14:42;;;;;;;;;;;;;;;;;;5154487;27;1473;-44
2023/04/19 15:17:10;;;;;;;;;;;;;;;;;;5154261;27;947;-41
2023/04/19 15:19:37;;;;;;;;;;;;;;;;;;5154301;27;1209;-40
2023/04/19 15:22:05;;;;;;;;;;;;;;;;;;5154229;27;1025;-45
2023/04/19 15:24:35;;;;;;;;;;;;;;;;;;5153603;27;1193;-41
2023/04/19 15:27:03;;;;;;;;;;;;;;;;;;5154291;27;1208;-48
2023/04/19 15:29:30;;;;;;;;;;;;;;;;;;5153090;27;1970;-48
2023/04/19 15:31:57;;;;;;;;;;;;;;;;;;5151532;27;1040;-40
2023/04/19 15:34:24;;;;;;;;;;;;;;;;;;5152153;27;1067;-40
2023/04/19 15:36:52;;;;;;;;;;;;;;;;;;5152425;27;1364;-42
2023/04/19 15:39:19;;;;;;;;;;;;;;;;;;5152668;27;1077;-42
2023/04/19 15:41:46;;;;;;;;;;;;;;;;;;5152390;27;927;-41
2023/04/19 15:44:13;;;;;;;;;;;;;;;;;;5152201;27;1214;-39
2023/04/19 15:46:40;;;;;;;;;;;;;;;;;;5154283;27;1254;-40
2023/04/19 15:49:08;;;;;;;;;;;;;;;;;;5173106;27;1978;-46
2023/04/19 15:51:35;;;;;;;;;;;;;;;;;;5172986;27;1088;-41
2023/04/19 15:54:02;;;;;;;;;;;;;;;;;;5173109;27;1183;-41
2023/04/19 15:56:30;;;;;;;;;;;;;;;;;;5172911;27;1264;-44
2023/04/19 15:58:57;;;;;;;;;;;;;;;;;;5172837;27;1072;-40
2023/04/19 16:01:25;;;;;;;;;;;;;;;;;;5172553;27;1094;-39
2023/04/19 16:03:52;;;;;;;;;;;;;;;;;;5172777;27;996;-41
2023/04/19 16:06:21;;;;;;;;;;;;;;;;;;5172778;27;951;-40
2023/04/19 16:08:49;;;;;;;;;;;;;;;;;;5172573;27;1972;-41
2023/04/19 16:11:18;;;;;;;;;;;;;;;;;;5172546;27;1061;-40
2023/04/19 16:13:47;;;;;;;;;;;;;;;;;;5172465;27;998;-40
2023/04/19 16:16:14;;;;;;;;;;;;;;;;;;5172307;27;1002;-41
2023/04/19 16:18:41;;;;;;;;;;;;;;;;;;5172516;27;1266;-41
2023/04/19 16:21:09;;;;;;;;;;;;;;;;;;5172424;27;1340;-41
2023/04/19 16:23:36;;;;;;;;;;;;;;;;;;5172931;27;1077;-48
2023/04/19 16:26:04;;;;;;;;;;;;;;;;;;5172987;27;1051;-43
2023/04/19 16:28:31;;;;;;;;;;;;;;;;;;5173216;27;1906;-50
2023/04/19 16:30:58;;;;;;;;;;;;;;;;;;5173858;27;960;-42
2023/04/19 16:33:25;;;;;;;;;;;;;;;;;;5173729;27;1287;-48
2023/04/19 16:35:52;;;;;;;;;;;;;;;;;;5157514;27;1012;-45
2023/04/19 16:38:20;;;;;;;;;;;;;;;;;;5152875;27;1139;-40
2023/04/19 16:40:48;;;;;;;;;;;;;;;;;;5152618;27;1160;-40
2023/04/19 16:43:15;;;;;;;;;;;;;;;;;;5152962;27;1063;-39
2023/04/19 16:45:42;;;;;;;;;;;;;;;;;;5152618;27;1311;-40
2023/04/19 16:48:09;;;;;;;;;;;;;;;;;;5152696;27;1368;-40
2023/04/19 16:50:37;;;;;;;;;;;;;;;;;;5153041;27;1905;-41
2023/04/19 16:53:04;;;;;;;;;;;;;;;;;;5152916;27;1074;-40
2023/04/19 16:55:31;;;;;;;;;;;;;;;;;;5152646;27;1057;-40
2023/04/19 16:57:58;;;;;;;;;;;;;;;;;;5152525;27;1204;-41
2023/04/19 17:00:26;;;;;;;;;;;;;;;;;;5152638;27;1235;-41
2023/04/19 17:02:53;;;;;;;;;;;;;;;;;;5152696;27;1160;-50
2023/04/19 17:05:20;;;;;;;;;;;;;;;;;;5152626;27;1034;-42
2023/04/19 17:07:49;;;;;;;;;;;;;;;;;;5152426;27;1281;-41
2023/04/19 17:10:16;;;;;;;;;;;;;;;;;;5152762;27;1909;-40
2023/04/19 17:12:43;;;;;;;;;;;;;;;;;;5152761;27;1000;-40
2023/04/19 17:15:11;;;;;;;;;;;;;;;;;;5152784;27;895;-40
2023/04/19 17:17:38;;;;;;;;;;;;;;;;;;5153229;27;1098;-40